sensor_id;sensor_type;location;lat;lon;timestamp;P1;durP1;ratioP1;P2;durP2;ratioP2
64714;SDS011;51144;53.002;6.506;2023-04-01T00:00:05;6.50;;;5.00;;
64714;SDS011;51144;53.002;6.506;2023-04-01T00:02:32;5.80;;;5.20;;
64714;SDS011;51144;53.002;6.506;2023-04-01T00:04:57;6.07;;;5.20;;
64714;SDS011;51144;53.002;6.506;2023-04-01T00:07:23;6.18;;;5.07;;
64714;SDS011;51144;53.002;6.506;2023-04-01T00:09:48;7.72;;;5.53;;
64714;SDS011;51144;53.002;6.506;2023-04-01T00:12:14;8.68;;;5.18;;
64714;SDS011;51144;53.002;6.506;2023-04-01T00:14:40;8.95;;;5.55;;
64714;SDS011;51144;53.002;6.506;2023-04-01T00:17:06;5.00;;;4.60;;
64714;SDS011;51144;53.002;6.506;2023-04-01T00:19:32;5.45;;;4.95;;
64714;SDS011;51144;53.002;6.506;2023-04-01T00:21:58;5.65;;;5.10;;
64714;SDS011;51144;53.002;6.506;2023-04-01T00:24:23;5.18;;;4.68;;
64714;SDS011;51144;53.002;6.506;2023-04-01T00:26:49;7.85;;;5.43;;
64714;SDS011;51144;53.002;6.506;2023-04-01T00:29:15;5.60;;;4.80;;
64714;SDS011;51144;53.002;6.506;2023-04-01T00:31:40;6.88;;;5.70;;
64714;SDS011;51144;53.002;6.506;2023-04-01T00:34:06;5.90;;;5.35;;
64714;SDS011;51144;53.002;6.506;2023-04-01T00:36:31;7.57;;;5.45;;
64714;SDS011;51144;53.002;6.506;2023-04-01T00:38:57;7.75;;;5.07;;
64714;SDS011;51144;53.002;6.506;2023-04-01T00:41:26;6.40;;;4.93;;
64714;SDS011;51144;53.002;6.506;2023-04-01T00:44:11;6.07;;;4.65;;
64714;SDS011;51144;53.002;6.506;2023-04-01T00:46:46;6.07;;;5.40;;
64714;SDS011;51144;53.002;6.506;2023-04-01T00:49:12;5.35;;;4.95;;
64714;SDS011;51144;53.002;6.506;2023-04-01T00:51:38;5.78;;;5.20;;
64714;SDS011;51144;53.002;6.506;2023-04-01T00:54:07;8.13;;;5.70;;
64714;SDS011;51144;53.002;6.506;2023-04-01T00:56:35;6.07;;;5.47;;
64714;SDS011;51144;53.002;6.506;2023-04-01T00:59:06;8.75;;;5.90;;
64714;SDS011;51144;53.002;6.506;2023-04-01T01:01:36;8.02;;;6.00;;
64714;SDS011;51144;53.002;6.506;2023-04-01T01:04:02;5.78;;;5.25;;
64714;SDS011;51144;53.002;6.506;2023-04-01T01:09:31;6.88;;;5.07;;
64714;SDS011;51144;53.002;6.506;2023-04-01T01:12:18;5.90;;;4.85;;
64714;SDS011;51144;53.002;6.506;2023-04-01T01:17:37;7.32;;;5.53;;
64714;SDS011;51144;53.002;6.506;2023-04-01T01:25:45;6.15;;;5.55;;
64714;SDS011;51144;53.002;6.506;2023-04-01T01:28:47;6.22;;;5.63;;
64714;SDS011;51144;53.002;6.506;2023-04-01T01:31:34;6.65;;;5.35;;
64714;SDS011;51144;53.002;6.506;2023-04-01T01:34:15;5.63;;;5.03;;
64714;SDS011;51144;53.002;6.506;2023-04-01T01:37:00;4.60;;;4.20;;
64714;SDS011;51144;53.002;6.506;2023-04-01T01:39:30;5.15;;;4.30;;
64714;SDS011;51144;53.002;6.506;2023-04-01T01:41:59;5.80;;;4.10;;
64714;SDS011;51144;53.002;6.506;2023-04-01T01:44:28;4.57;;;4.18;;
64714;SDS011;51144;53.002;6.506;2023-04-01T01:46:56;5.65;;;3.95;;
64714;SDS011;51144;53.002;6.506;2023-04-01T01:49:22;2.45;;;2.25;;
64714;SDS011;51144;53.002;6.506;2023-04-01T01:51:49;1.50;;;1.38;;
64714;SDS011;51144;53.002;6.506;2023-04-01T01:54:16;1.42;;;0.80;;
64714;SDS011;51144;53.002;6.506;2023-04-01T01:56:43;1.33;;;0.68;;
64714;SDS011;51144;53.002;6.506;2023-04-01T01:59:11;2.30;;;0.77;;
64714;SDS011;51144;53.002;6.506;2023-04-01T02:01:41;1.77;;;1.20;;
64714;SDS011;51144;53.002;6.506;2023-04-01T02:04:10;2.55;;;0.80;;
64714;SDS011;51144;53.002;6.506;2023-04-01T02:06:40;1.88;;;0.80;;
64714;SDS011;51144;53.002;6.506;2023-04-01T02:09:15;1.92;;;0.80;;
64714;SDS011;51144;53.002;6.506;2023-04-01T02:11:42;1.75;;;0.68;;
64714;SDS011;51144;53.002;6.506;2023-04-01T02:14:15;1.50;;;0.83;;
64714;SDS011;51144;53.002;6.506;2023-04-01T02:19:29;2.50;;;1.10;;
64714;SDS011;51144;53.002;6.506;2023-04-01T02:22:16;4.15;;;2.15;;
64714;SDS011;51144;53.002;6.506;2023-04-01T02:24:46;5.80;;;3.72;;
64714;SDS011;51144;53.002;6.506;2023-04-01T02:27:14;5.25;;;3.42;;
64714;SDS011;51144;53.002;6.506;2023-04-01T02:29:40;7.82;;;4.15;;
64714;SDS011;51144;53.002;6.506;2023-04-01T02:32:06;6.55;;;3.90;;
64714;SDS011;51144;53.002;6.506;2023-04-01T02:34:33;6.07;;;3.35;;
64714;SDS011;51144;53.002;6.506;2023-04-01T02:36:59;3.92;;;2.70;;
64714;SDS011;51144;53.002;6.506;2023-04-01T02:39:25;3.72;;;2.75;;
64714;SDS011;51144;53.002;6.506;2023-04-01T02:41:51;4.32;;;2.90;;
64714;SDS011;51144;53.002;6.506;2023-04-01T02:44:17;5.10;;;2.92;;
64714;SDS011;51144;53.002;6.506;2023-04-01T02:46:43;7.13;;;3.80;;
64714;SDS011;51144;53.002;6.506;2023-04-01T02:49:09;4.47;;;3.28;;
64714;SDS011;51144;53.002;6.506;2023-04-01T02:51:35;7.05;;;2.90;;
64714;SDS011;51144;53.002;6.506;2023-04-01T02:54:01;5.00;;;2.78;;
64714;SDS011;51144;53.002;6.506;2023-04-01T02:56:26;3.92;;;2.55;;
64714;SDS011;51144;53.002;6.506;2023-04-01T02:58:52;5.30;;;2.33;;
64714;SDS011;51144;53.002;6.506;2023-04-01T03:01:19;6.88;;;2.50;;
64714;SDS011;51144;53.002;6.506;2023-04-01T03:03:45;2.50;;;1.75;;
64714;SDS011;51144;53.002;6.506;2023-04-01T03:06:12;2.88;;;1.70;;
64714;SDS011;51144;53.002;6.506;2023-04-01T03:08:39;3.05;;;1.50;;
64714;SDS011;51144;53.002;6.506;2023-04-01T03:11:04;1.70;;;0.90;;
64714;SDS011;51144;53.002;6.506;2023-04-01T03:13:30;1.95;;;0.90;;
64714;SDS011;51144;53.002;6.506;2023-04-01T03:15:56;3.35;;;0.60;;
64714;SDS011;51144;53.002;6.506;2023-04-01T03:18:22;2.03;;;0.80;;
64714;SDS011;51144;53.002;6.506;2023-04-01T03:20:48;1.38;;;0.60;;
64714;SDS011;51144;53.002;6.506;2023-04-01T03:23:14;1.38;;;0.32;;
64714;SDS011;51144;53.002;6.506;2023-04-01T03:25:41;0.70;;;0.30;;
64714;SDS011;51144;53.002;6.506;2023-04-01T03:28:07;1.25;;;0.30;;
64714;SDS011;51144;53.002;6.506;2023-04-01T03:30:32;0.40;;;0.10;;
64714;SDS011;51144;53.002;6.506;2023-04-01T03:32:58;1.02;;;0.20;;
64714;SDS011;51144;53.002;6.506;2023-04-01T03:35:25;0.57;;;0.30;;
64714;SDS011;51144;53.002;6.506;2023-04-01T03:37:51;1.00;;;0.30;;
64714;SDS011;51144;53.002;6.506;2023-04-01T03:40:17;0.85;;;0.30;;
64714;SDS011;51144;53.002;6.506;2023-04-01T03:42:43;1.77;;;0.32;;
64714;SDS011;51144;53.002;6.506;2023-04-01T03:45:09;2.90;;;0.40;;
64714;SDS011;51144;53.002;6.506;2023-04-01T03:47:36;2.78;;;0.60;;
64714;SDS011;51144;53.002;6.506;2023-04-01T03:50:03;3.40;;;1.13;;
64714;SDS011;51144;53.002;6.506;2023-04-01T03:52:30;2.13;;;0.90;;
64714;SDS011;51144;53.002;6.506;2023-04-01T03:54:55;3.50;;;1.45;;
64714;SDS011;51144;53.002;6.506;2023-04-01T03:57:21;5.60;;;2.42;;
64714;SDS011;51144;53.002;6.506;2023-04-01T03:59:47;5.88;;;3.08;;
64714;SDS011;51144;53.002;6.506;2023-04-01T04:02:12;7.00;;;3.30;;
64714;SDS011;51144;53.002;6.506;2023-04-01T04:04:38;13.48;;;5.88;;
64714;SDS011;51144;53.002;6.506;2023-04-01T04:07:04;10.98;;;6.57;;
64714;SDS011;51144;53.002;6.506;2023-04-01T04:09:30;12.75;;;7.63;;
64714;SDS011;51144;53.002;6.506;2023-04-01T04:11:56;13.63;;;7.50;;
64714;SDS011;51144;53.002;6.506;2023-04-01T04:14:23;14.15;;;8.25;;
64714;SDS011;51144;53.002;6.506;2023-04-01T04:16:48;13.25;;;7.68;;
64714;SDS011;51144;53.002;6.506;2023-04-01T04:19:14;11.38;;;7.45;;
64714;SDS011;51144;53.002;6.506;2023-04-01T04:21:40;14.52;;;8.85;;
64714;SDS011;51144;53.002;6.506;2023-04-01T04:24:07;12.55;;;7.88;;
64714;SDS011;51144;53.002;6.506;2023-04-01T04:26:33;14.43;;;8.60;;
64714;SDS011;51144;53.002;6.506;2023-04-01T04:28:59;13.20;;;8.65;;
64714;SDS011;51144;53.002;6.506;2023-04-01T04:31:26;15.00;;;9.30;;
64714;SDS011;51144;53.002;6.506;2023-04-01T04:33:52;12.68;;;7.85;;
64714;SDS011;51144;53.002;6.506;2023-04-01T04:36:18;12.23;;;8.15;;
64714;SDS011;51144;53.002;6.506;2023-04-01T04:38:45;14.95;;;8.70;;
64714;SDS011;51144;53.002;6.506;2023-04-01T04:41:15;13.48;;;7.78;;
64714;SDS011;51144;53.002;6.506;2023-04-01T04:43:47;10.00;;;7.75;;
64714;SDS011;51144;53.002;6.506;2023-04-01T04:46:15;13.48;;;8.27;;
64714;SDS011;51144;53.002;6.506;2023-04-01T04:48:41;14.25;;;8.90;;
64714;SDS011;51144;53.002;6.506;2023-04-01T04:51:10;18.00;;;9.45;;
64714;SDS011;51144;53.002;6.506;2023-04-01T04:53:38;13.60;;;8.07;;
64714;SDS011;51144;53.002;6.506;2023-04-01T04:56:03;14.82;;;8.30;;
64714;SDS011;51144;53.002;6.506;2023-04-01T04:58:29;13.20;;;8.35;;
64714;SDS011;51144;53.002;6.506;2023-04-01T05:00:55;16.30;;;9.52;;
64714;SDS011;51144;53.002;6.506;2023-04-01T05:03:20;15.82;;;9.38;;
64714;SDS011;51144;53.002;6.506;2023-04-01T05:05:50;12.32;;;8.27;;
64714;SDS011;51144;53.002;6.506;2023-04-01T05:08:18;15.20;;;9.38;;
64714;SDS011;51144;53.002;6.506;2023-04-01T05:10:44;15.65;;;9.45;;
64714;SDS011;51144;53.002;6.506;2023-04-01T05:13:10;17.98;;;9.13;;
64714;SDS011;51144;53.002;6.506;2023-04-01T05:15:36;20.27;;;11.10;;
64714;SDS011;51144;53.002;6.506;2023-04-01T05:18:02;18.90;;;9.98;;
64714;SDS011;51144;53.002;6.506;2023-04-01T05:20:28;14.13;;;9.52;;
64714;SDS011;51144;53.002;6.506;2023-04-01T05:22:57;17.10;;;9.40;;
64714;SDS011;51144;53.002;6.506;2023-04-01T05:25:24;20.30;;;11.43;;
64714;SDS011;51144;53.002;6.506;2023-04-01T05:27:50;19.02;;;10.32;;
64714;SDS011;51144;53.002;6.506;2023-04-01T05:30:16;18.00;;;10.57;;
64714;SDS011;51144;53.002;6.506;2023-04-01T05:32:42;20.60;;;11.63;;
64714;SDS011;51144;53.002;6.506;2023-04-01T05:35:08;18.15;;;11.15;;
64714;SDS011;51144;53.002;6.506;2023-04-01T05:37:35;24.85;;;12.15;;
64714;SDS011;51144;53.002;6.506;2023-04-01T05:40:01;20.33;;;11.27;;
64714;SDS011;51144;53.002;6.506;2023-04-01T05:42:28;21.52;;;12.35;;
64714;SDS011;51144;53.002;6.506;2023-04-01T05:44:54;19.00;;;12.35;;
64714;SDS011;51144;53.002;6.506;2023-04-01T05:47:20;24.38;;;12.95;;
64714;SDS011;51144;53.002;6.506;2023-04-01T05:49:47;17.25;;;11.15;;
64714;SDS011;51144;53.002;6.506;2023-04-01T05:52:12;25.58;;;14.00;;
64714;SDS011;51144;53.002;6.506;2023-04-01T05:54:38;21.00;;;12.10;;
64714;SDS011;51144;53.002;6.506;2023-04-01T05:57:04;22.73;;;12.32;;
64714;SDS011;51144;53.002;6.506;2023-04-01T05:59:29;16.52;;;10.80;;
64714;SDS011;51144;53.002;6.506;2023-04-01T06:01:56;17.42;;;10.35;;
64714;SDS011;51144;53.002;6.506;2023-04-01T06:04:22;14.75;;;9.48;;
64714;SDS011;51144;53.002;6.506;2023-04-01T06:06:49;14.77;;;9.10;;
64714;SDS011;51144;53.002;6.506;2023-04-01T06:09:16;15.40;;;8.95;;
64714;SDS011;51144;53.002;6.506;2023-04-01T06:23:23;11.00;;;6.50;;
64714;SDS011;51144;53.002;6.506;2023-04-01T06:33:57;8.65;;;3.83;;
64714;SDS011;51144;53.002;6.506;2023-04-01T06:42:32;5.60;;;4.20;;
64714;SDS011;51144;53.002;6.506;2023-04-01T06:48:33;14.70;;;8.38;;
64714;SDS011;51144;53.002;6.506;2023-04-01T06:56:16;23.95;;;14.35;;
64714;SDS011;51144;53.002;6.506;2023-04-01T06:58:46;23.58;;;15.02;;
64714;SDS011;51144;53.002;6.506;2023-04-01T07:01:30;26.73;;;16.10;;
64714;SDS011;51144;53.002;6.506;2023-04-01T07:04:02;29.15;;;17.17;;
64714;SDS011;51144;53.002;6.506;2023-04-01T07:06:46;29.23;;;17.20;;
64714;SDS011;51144;53.002;6.506;2023-04-01T07:09:26;29.67;;;18.45;;
64714;SDS011;51144;53.002;6.506;2023-04-01T07:11:56;23.42;;;16.08;;
64714;SDS011;51144;53.002;6.506;2023-04-01T07:14:38;26.70;;;17.02;;
64714;SDS011;51144;53.002;6.506;2023-04-01T07:17:25;27.23;;;17.27;;
64714;SDS011;51144;53.002;6.506;2023-04-01T07:22:32;25.37;;;16.47;;
64714;SDS011;51144;53.002;6.506;2023-04-01T07:25:01;28.83;;;18.48;;
64714;SDS011;51144;53.002;6.506;2023-04-01T07:27:36;31.25;;;18.73;;
64714;SDS011;51144;53.002;6.506;2023-04-01T07:30:06;23.42;;;16.48;;
64714;SDS011;51144;53.002;6.506;2023-04-01T07:32:44;33.50;;;18.98;;
64714;SDS011;51144;53.002;6.506;2023-04-01T07:40:32;32.05;;;19.15;;
64714;SDS011;51144;53.002;6.506;2023-04-01T07:48:58;29.55;;;18.45;;
64714;SDS011;51144;53.002;6.506;2023-04-01T08:07:56;27.40;;;20.25;;
64714;SDS011;51144;53.002;6.506;2023-04-01T08:10:39;27.02;;;18.58;;
64714;SDS011;51144;53.002;6.506;2023-04-01T08:21:28;25.25;;;18.92;;
64714;SDS011;51144;53.002;6.506;2023-04-01T08:24:12;24.92;;;19.73;;
64714;SDS011;51144;53.002;6.506;2023-04-01T08:26:46;21.23;;;18.88;;
64714;SDS011;51144;53.002;6.506;2023-04-01T08:29:18;23.00;;;19.75;;
64714;SDS011;51144;53.002;6.506;2023-04-01T08:31:55;21.38;;;18.85;;
64714;SDS011;51144;53.002;6.506;2023-04-01T08:34:39;24.25;;;19.60;;
64714;SDS011;51144;53.002;6.506;2023-04-01T08:37:09;27.48;;;18.90;;
64714;SDS011;51144;53.002;6.506;2023-04-01T08:39:41;21.33;;;18.90;;
64714;SDS011;51144;53.002;6.506;2023-04-01T09:00:15;16.35;;;14.65;;
64714;SDS011;51144;53.002;6.506;2023-04-01T09:08:20;18.60;;;13.43;;
64714;SDS011;51144;53.002;6.506;2023-04-01T09:16:53;16.95;;;13.57;;
64714;SDS011;51144;53.002;6.506;2023-04-01T09:31:04;17.27;;;15.48;;
64714;SDS011;51144;53.002;6.506;2023-04-01T09:36:44;16.95;;;14.80;;
64714;SDS011;51144;53.002;6.506;2023-04-01T09:39:36;15.75;;;14.25;;
64714;SDS011;51144;53.002;6.506;2023-04-01T09:45:16;15.75;;;14.15;;
64714;SDS011;51144;53.002;6.506;2023-04-01T09:48:03;13.48;;;12.27;;
64714;SDS011;51144;53.002;6.506;2023-04-01T09:50:47;16.17;;;12.82;;
64714;SDS011;51144;53.002;6.506;2023-04-01T09:56:14;13.07;;;11.98;;
64714;SDS011;51144;53.002;6.506;2023-04-01T10:01:50;10.65;;;9.52;;
64714;SDS011;51144;53.002;6.506;2023-04-01T10:04:41;10.35;;;9.45;;
64714;SDS011;51144;53.002;6.506;2023-04-01T10:07:36;11.30;;;10.27;;
64714;SDS011;51144;53.002;6.506;2023-04-01T10:13:31;4.13;;;3.83;;
64714;SDS011;51144;53.002;6.506;2023-04-01T10:25:01;2.47;;;2.28;;
64714;SDS011;51144;53.002;6.506;2023-04-01T10:27:58;3.63;;;3.33;;
64714;SDS011;51144;53.002;6.506;2023-04-01T10:50:16;2.97;;;2.78;;
64714;SDS011;51144;53.002;6.506;2023-04-01T10:56:11;3.03;;;2.72;;
64714;SDS011;51144;53.002;6.506;2023-04-01T11:12:20;1.75;;;1.65;;
64714;SDS011;51144;53.002;6.506;2023-04-01T11:15:03;2.43;;;1.60;;
64714;SDS011;51144;53.002;6.506;2023-04-01T11:20:52;2.67;;;1.70;;
64714;SDS011;51144;53.002;6.506;2023-04-01T11:23:33;1.90;;;1.35;;
64714;SDS011;51144;53.002;6.506;2023-04-01T11:31:50;1.35;;;1.10;;
64714;SDS011;51144;53.002;6.506;2023-04-01T11:34:37;1.63;;;1.20;;
64714;SDS011;51144;53.002;6.506;2023-04-01T11:53:54;2.25;;;1.60;;
64714;SDS011;51144;53.002;6.506;2023-04-01T12:05:03;1.52;;;1.13;;
64714;SDS011;51144;53.002;6.506;2023-04-01T12:19:12;3.08;;;1.30;;
64714;SDS011;51144;53.002;6.506;2023-04-01T12:22:12;1.95;;;1.55;;
64714;SDS011;51144;53.002;6.506;2023-04-01T12:28:03;2.27;;;1.20;;
64714;SDS011;51144;53.002;6.506;2023-04-01T12:36:17;2.65;;;1.13;;
64714;SDS011;51144;53.002;6.506;2023-04-01T12:55:44;1.10;;;1.00;;
64714;SDS011;51144;53.002;6.506;2023-04-01T13:17:58;2.72;;;0.77;;
64714;SDS011;51144;53.002;6.506;2023-04-01T13:20:43;1.55;;;0.85;;
64714;SDS011;51144;53.002;6.506;2023-04-01T13:31:26;0.98;;;0.55;;
64714;SDS011;51144;53.002;6.506;2023-04-01T13:34:16;1.35;;;0.50;;
64714;SDS011;51144;53.002;6.506;2023-04-01T13:44:53;1.52;;;0.50;;
64714;SDS011;51144;53.002;6.506;2023-04-01T14:06:45;0.45;;;0.30;;
64714;SDS011;51144;53.002;6.506;2023-04-01T14:14:51;0.50;;;0.30;;
64714;SDS011;51144;53.002;6.506;2023-04-01T14:21:08;0.63;;;0.30;;
64714;SDS011;51144;53.002;6.506;2023-04-01T14:23:57;0.50;;;0.30;;
64714;SDS011;51144;53.002;6.506;2023-04-01T14:29:40;1.38;;;0.30;;
64714;SDS011;51144;53.002;6.506;2023-04-01T14:35:14;0.85;;;0.40;;
64714;SDS011;51144;53.002;6.506;2023-04-01T14:37:58;0.80;;;0.30;;
64714;SDS011;51144;53.002;6.506;2023-04-01T14:40:28;0.90;;;0.40;;
64714;SDS011;51144;53.002;6.506;2023-04-01T14:43:47;0.55;;;0.30;;
64714;SDS011;51144;53.002;6.506;2023-04-01T14:48:26;0.65;;;0.30;;
64714;SDS011;51144;53.002;6.506;2023-04-01T14:50:57;0.68;;;0.40;;
64714;SDS011;51144;53.002;6.506;2023-04-01T14:53:29;0.50;;;0.30;;
64714;SDS011;51144;53.002;6.506;2023-04-01T14:55:59;1.30;;;0.40;;
64714;SDS011;51144;53.002;6.506;2023-04-01T14:58:44;1.33;;;0.47;;
64714;SDS011;51144;53.002;6.506;2023-04-01T15:06:56;0.52;;;0.30;;
64714;SDS011;51144;53.002;6.506;2023-04-01T15:09:38;0.82;;;0.35;;
64714;SDS011;51144;53.002;6.506;2023-04-01T15:20:33;1.08;;;0.40;;
64714;SDS011;51144;53.002;6.506;2023-04-01T15:31:38;1.27;;;0.40;;
64714;SDS011;51144;53.002;6.506;2023-04-01T15:37:40;3.55;;;0.90;;
64714;SDS011;51144;53.002;6.506;2023-04-01T15:42:55;2.45;;;1.02;;
64714;SDS011;51144;53.002;6.506;2023-04-01T15:50:54;1.13;;;0.50;;
64714;SDS011;51144;53.002;6.506;2023-04-01T16:08:16;2.45;;;1.55;;
64714;SDS011;51144;53.002;6.506;2023-04-01T16:21:48;3.53;;;1.42;;
64714;SDS011;51144;53.002;6.506;2023-04-01T16:24:30;2.92;;;2.15;;
64714;SDS011;51144;53.002;6.506;2023-04-01T16:27:01;4.35;;;1.52;;
64714;SDS011;51144;53.002;6.506;2023-04-01T16:29:48;2.78;;;1.50;;
64714;SDS011;51144;53.002;6.506;2023-04-01T16:32:29;5.22;;;2.17;;
64714;SDS011;51144;53.002;6.506;2023-04-01T16:41:00;3.55;;;2.10;;
64714;SDS011;51144;53.002;6.506;2023-04-01T16:43:40;3.67;;;2.58;;
64714;SDS011;51144;53.002;6.506;2023-04-01T16:46:27;3.95;;;1.80;;
64714;SDS011;51144;53.002;6.506;2023-04-01T16:51:26;3.42;;;2.17;;
64714;SDS011;51144;53.002;6.506;2023-04-01T17:02:13;5.15;;;3.05;;
64714;SDS011;51144;53.002;6.506;2023-04-01T17:05:16;5.75;;;2.33;;
64714;SDS011;51144;53.002;6.506;2023-04-01T17:07:48;5.35;;;3.55;;
64714;SDS011;51144;53.002;6.506;2023-04-01T17:13:24;5.18;;;3.58;;
64714;SDS011;51144;53.002;6.506;2023-04-01T17:19:16;3.60;;;2.17;;
64714;SDS011;51144;53.002;6.506;2023-04-01T17:22:04;3.85;;;2.38;;
64714;SDS011;51144;53.002;6.506;2023-04-01T17:24:53;6.30;;;3.20;;
64714;SDS011;51144;53.002;6.506;2023-04-01T17:30:43;5.25;;;3.17;;
64714;SDS011;51144;53.002;6.506;2023-04-01T17:36:30;7.25;;;4.00;;
64714;SDS011;51144;53.002;6.506;2023-04-01T17:39:53;6.70;;;3.65;;
64714;SDS011;51144;53.002;6.506;2023-04-01T17:42:41;6.10;;;3.65;;
64714;SDS011;51144;53.002;6.506;2023-04-01T17:50:34;6.88;;;3.30;;
64714;SDS011;51144;53.002;6.506;2023-04-01T17:58:21;4.43;;;3.20;;
64714;SDS011;51144;53.002;6.506;2023-04-01T18:01:09;6.30;;;3.50;;
64714;SDS011;51144;53.002;6.506;2023-04-01T18:06:31;7.07;;;3.30;;
64714;SDS011;51144;53.002;6.506;2023-04-01T18:22:48;5.50;;;3.88;;
64714;SDS011;51144;53.002;6.506;2023-04-01T18:25:28;7.53;;;4.75;;
64714;SDS011;51144;53.002;6.506;2023-04-01T18:28:17;7.00;;;4.30;;
64714;SDS011;51144;53.002;6.506;2023-04-01T18:31:39;7.88;;;4.75;;
64714;SDS011;51144;53.002;6.506;2023-04-01T18:34:07;7.22;;;4.13;;
64714;SDS011;51144;53.002;6.506;2023-04-01T18:36:56;6.65;;;3.60;;
64714;SDS011;51144;53.002;6.506;2023-04-01T18:39:41;9.25;;;4.25;;
64714;SDS011;51144;53.002;6.506;2023-04-01T18:44:57;7.22;;;3.53;;
64714;SDS011;51144;53.002;6.506;2023-04-01T18:47:44;8.00;;;3.45;;
64714;SDS011;51144;53.002;6.506;2023-04-01T18:50:47;6.72;;;3.78;;
64714;SDS011;51144;53.002;6.506;2023-04-01T18:56:02;7.93;;;4.75;;
64714;SDS011;51144;53.002;6.506;2023-04-01T19:06:30;8.77;;;4.32;;
64714;SDS011;51144;53.002;6.506;2023-04-01T19:12:18;8.90;;;4.28;;
64714;SDS011;51144;53.002;6.506;2023-04-01T19:20:47;7.97;;;4.07;;
64714;SDS011;51144;53.002;6.506;2023-04-01T19:35:17;7.18;;;4.32;;
64714;SDS011;51144;53.002;6.506;2023-04-01T19:38:02;4.95;;;3.28;;
64714;SDS011;51144;53.002;6.506;2023-04-01T19:43:36;9.53;;;5.37;;
64714;SDS011;51144;53.002;6.506;2023-04-01T19:46:25;4.25;;;3.88;;
64714;SDS011;51144;53.002;6.506;2023-04-01T19:51:59;8.85;;;5.35;;
64714;SDS011;51144;53.002;6.506;2023-04-01T19:57:04;10.18;;;4.97;;
64714;SDS011;51144;53.002;6.506;2023-04-01T19:59:35;10.68;;;5.15;;
64714;SDS011;51144;53.002;6.506;2023-04-01T20:04:44;12.30;;;6.20;;
64714;SDS011;51144;53.002;6.506;2023-04-01T20:15:47;11.63;;;5.25;;
64714;SDS011;51144;53.002;6.506;2023-04-01T20:21:19;9.20;;;5.72;;
64714;SDS011;51144;53.002;6.506;2023-04-01T20:23:54;12.00;;;6.20;;
64714;SDS011;51144;53.002;6.506;2023-04-01T20:26:30;15.50;;;6.85;;
64714;SDS011;51144;53.002;6.506;2023-04-01T20:32:04;13.98;;;5.65;;
64714;SDS011;51144;53.002;6.506;2023-04-01T20:37:29;10.27;;;6.28;;
64714;SDS011;51144;53.002;6.506;2023-04-01T20:43:54;9.00;;;4.53;;
64714;SDS011;51144;53.002;6.506;2023-04-01T20:46:27;11.63;;;5.72;;
64714;SDS011;51144;53.002;6.506;2023-04-01T20:52:01;8.70;;;6.47;;
64714;SDS011;51144;53.002;6.506;2023-04-01T20:57:21;8.77;;;4.70;;
64714;SDS011;51144;53.002;6.506;2023-04-01T21:00:00;6.88;;;4.50;;
64714;SDS011;51144;53.002;6.506;2023-04-01T21:10:55;8.10;;;4.90;;
64714;SDS011;51144;53.002;6.506;2023-04-01T21:16:27;9.98;;;4.50;;
64714;SDS011;51144;53.002;6.506;2023-04-01T21:26:44;8.70;;;4.22;;
64714;SDS011;51144;53.002;6.506;2023-04-01T21:47:12;5.43;;;3.65;;
64714;SDS011;51144;53.002;6.506;2023-04-01T22:00:19;9.05;;;4.15;;
64714;SDS011;51144;53.002;6.506;2023-04-01T22:05:25;8.15;;;3.35;;
64714;SDS011;51144;53.002;6.506;2023-04-01T22:10:42;7.30;;;3.60;;
64714;SDS011;51144;53.002;6.506;2023-04-01T22:13:17;10.02;;;3.95;;
64714;SDS011;51144;53.002;6.506;2023-04-01T22:21:03;9.85;;;4.15;;
64714;SDS011;51144;53.002;6.506;2023-04-01T22:23:46;6.38;;;3.50;;
64714;SDS011;51144;53.002;6.506;2023-04-01T22:31:29;6.07;;;3.28;;
64714;SDS011;51144;53.002;6.506;2023-04-01T22:34:13;9.07;;;3.88;;
64714;SDS011;51144;53.002;6.506;2023-04-01T22:36:59;9.20;;;4.03;;
64714;SDS011;51144;53.002;6.506;2023-04-01T22:48:18;5.35;;;2.90;;
64714;SDS011;51144;53.002;6.506;2023-04-01T22:53:59;7.45;;;3.50;;
64714;SDS011;51144;53.002;6.506;2023-04-01T22:56:57;6.70;;;3.20;;
64714;SDS011;51144;53.002;6.506;2023-04-01T23:02:26;5.75;;;2.88;;
64714;SDS011;51144;53.002;6.506;2023-04-01T23:05:02;13.20;;;3.58;;
64714;SDS011;51144;53.002;6.506;2023-04-01T23:10:17;7.30;;;3.40;;
64714;SDS011;51144;53.002;6.506;2023-04-01T23:12:51;9.20;;;3.13;;
64714;SDS011;51144;53.002;6.506;2023-04-01T23:15:19;6.32;;;2.70;;
64714;SDS011;51144;53.002;6.506;2023-04-01T23:17:58;4.82;;;2.33;;
64714;SDS011;51144;53.002;6.506;2023-04-01T23:20:36;10.00;;;2.95;;
64714;SDS011;51144;53.002;6.506;2023-04-01T23:23:30;9.70;;;2.67;;
64714;SDS011;51144;53.002;6.506;2023-04-01T23:28:53;6.47;;;3.10;;
64714;SDS011;51144;53.002;6.506;2023-04-01T23:33:58;7.78;;;2.72;;
64714;SDS011;51144;53.002;6.506;2023-04-01T23:36:29;6.40;;;2.65;;
64714;SDS011;51144;53.002;6.506;2023-04-01T23:38:56;5.97;;;2.30;;
64714;SDS011;51144;53.002;6.506;2023-04-01T23:41:27;7.70;;;3.10;;
64714;SDS011;51144;53.002;6.506;2023-04-01T23:44:05;8.95;;;3.35;;
64714;SDS011;51144;53.002;6.506;2023-04-01T23:46:35;6.88;;;2.80;;
64714;SDS011;51144;53.002;6.506;2023-04-01T23:49:02;8.55;;;2.85;;
64714;SDS011;51144;53.002;6.506;2023-04-01T23:51:37;5.22;;;2.50;;
64714;SDS011;51144;53.002;6.506;2023-04-01T23:56:51;6.30;;;3.95;;
64714;SDS011;51144;53.002;6.506;2023-04-01T23:59:22;4.30;;;2.30;;
